Time;durP1;ratioP1;P1;durP2;ratioP2;P2;SDS_P1;SDS_P2;PMS_P1;PMS_P2;Temp;Humidity;BMP_temperature;BMP_pressure;BME280_temperature;BME280_humidity;BME280_pressure;Samples;Min_cycle;Max_cycle;Signal;HPM_P1;HPM_P2
2022/07/23 00:00:52;;;;;;;7.00;2.17;;;;;;;22.17;51.88;101976.84;5028819;28;20072;-69
2022/07/23 00:03:18;;;;;;;4.07;2.88;;;;;;;22.15;51.89;101970.81;5028924;28;20481;-73
2022/07/23 00:05:43;;;;;;;9.30;2.70;;;;;;;22.04;52.10;101973.84;5010754;28;20094;-72
2022/07/23 00:08:09;;;;;;;4.43;2.17;;;;;;;22.06;52.29;101972.47;5028469;28;20495;-70
2022/07/23 00:10:35;;;;;;;5.78;2.13;;;;;;;22.02;52.37;101970.56;5028815;28;20038;-71
2022/07/23 00:13:00;;;;;;;10.95;2.35;;;;;;;22.11;52.59;101971.66;5029124;28;20517;-70
2022/07/23 00:15:26;;;;;;;4.25;2.30;;;;;;;22.01;53.33;101969.75;5028859;28;20068;-71
2022/07/23 00:17:51;;;;;;;2.35;2.15;;;;;;;22.01;52.56;101972.50;5028332;28;20458;-72
2022/07/23 00:20:17;;;;;;;3.22;2.33;;;;;;;22.05;52.76;101968.13;5029152;28;20037;-71
2022/07/23 00:22:51;;;;;;;5.22;2.50;;;;;;;22.04;52.80;101969.19;5028966;28;20037;-71
2022/07/23 00:25:17;;;;;;;3.83;2.40;;;;;;;21.81;52.98;101964.25;5029617;28;20049;-70
2022/07/23 00:27:44;;;;;;;9.05;2.97;;;;;;;21.77;53.51;101961.22;5028522;28;20101;-69
2022/07/23 00:30:10;;;;;;;6.30;2.70;;;;;;;21.72;53.60;101960.38;5028811;28;20056;-73
2022/07/23 00:32:56;;;;;;;6.32;2.60;;;;;;;21.82;53.93;101969.44;5013825;28;20172;-72
2022/07/23 00:35:26;;;;;;;4.38;3.03;;;;;;;21.47;55.11;101958.44;5032062;28;20042;-71
2022/07/23 00:37:52;;;;;;;3.78;2.72;;;;;;;21.58;54.72;101960.09;5032334;28;20033;-71
2022/07/23 00:40:17;;;;;;;8.93;2.95;;;;;;;21.62;54.43;101952.97;5033462;28;20048;-73
2022/07/23 00:42:43;;;;;;;9.02;3.25;;;;;;;21.52;54.61;101955.69;5032150;28;20052;-70
2022/07/23 00:45:09;;;;;;;3.67;2.75;;;;;;;21.60;54.76;101957.09;5032083;28;20033;-72
2022/07/23 00:47:34;;;;;;;4.22;2.90;;;;;;;21.48;54.90;101960.06;5032174;28;20377;-71
2022/07/23 00:50:01;;;;;;;6.28;3.15;;;;;;;21.36;55.03;101956.78;5014312;28;20048;-70
2022/07/23 00:52:27;;;;;;;4.63;3.15;;;;;;;21.39;54.88;101958.94;5031914;28;20390;-70
2022/07/23 00:54:52;;;;;;;7.50;2.75;;;;;;;21.31;55.10;101948.53;5031774;28;20030;-71
2022/07/23 00:57:18;;;;;;;8.02;3.60;;;;;;;21.35;54.91;101946.06;5032108;28;20083;-70
2022/07/23 00:59:44;;;;;;;15.30;3.38;;;;;;;21.33;54.73;101953.72;5031472;28;20052;-71
2022/07/23 01:02:09;;;;;;;8.10;3.35;;;;;;;21.25;54.74;101952.34;5032015;28;20040;-70
2022/07/23 01:04:35;;;;;;;9.90;3.75;;;;;;;21.31;54.68;101953.19;5031165;28;20022;-70
2022/07/23 01:07:01;;;;;;;9.32;3.35;;;;;;;21.27;54.83;101949.34;5032243;28;20040;-70
2022/07/23 01:09:27;;;;;;;11.40;3.60;;;;;;;21.26;54.85;101947.72;5031663;28;20135;-71
2022/07/23 01:11:55;;;;;;;4.68;2.88;;;;;;;21.22;54.87;101941.97;5031554;28;20121;-70
2022/07/23 01:14:20;;;;;;;6.53;3.20;;;;;;;21.21;54.66;101939.50;5031955;28;20092;-71
2022/07/23 01:16:47;;;;;;;3.50;2.90;;;;;;;21.15;54.84;101937.84;5031552;28;20469;-70
2022/07/23 01:19:14;;;;;;;7.85;2.63;;;;;;;21.16;54.88;101932.09;5032025;28;20037;-71
2022/07/23 01:21:41;;;;;;;5.53;2.58;;;;;;;21.15;54.32;101935.09;5031453;28;20069;-72
2022/07/23 01:24:08;;;;;;;4.25;2.45;;;;;;;21.14;54.90;101936.19;5031488;28;20195;-71
2022/07/23 01:26:33;;;;;;;4.72;2.58;;;;;;;21.05;54.65;101932.34;5031465;28;20132;-70
2022/07/23 01:28:59;;;;;;;7.50;3.00;;;;;;;21.04;54.55;101927.94;5031855;28;20033;-71
2022/07/23 01:31:25;;;;;;;7.18;3.03;;;;;;;21.03;54.45;101931.78;5014157;28;20138;-74
2022/07/23 01:33:51;;;;;;;4.32;2.95;;;;;;;20.99;54.36;101929.53;5031741;28;20064;-70
2022/07/23 01:36:16;;;;;;;4.70;3.03;;;;;;;21.03;54.39;101929.84;5031462;28;20033;-71
2022/07/23 01:38:41;;;;;;;4.65;2.88;;;;;;;21.02;54.24;101930.94;5030894;28;20036;-72
2022/07/23 01:41:07;;;;;;;5.75;2.83;;;;;;;21.06;54.47;101929.31;5031017;28;20072;-69
2022/07/23 01:43:32;;;;;;;7.13;3.42;;;;;;;21.00;54.45;101928.47;5030420;28;20032;-71
2022/07/23 01:45:58;;;;;;;5.57;3.13;;;;;;;20.96;54.65;101926.53;5031525;28;20068;-70
2022/07/23 01:48:23;;;;;;;7.45;3.60;;;;;;;20.95;54.33;101922.16;5031054;28;20029;-70
2022/07/23 01:50:49;;;;;;;5.30;3.22;;;;;;;20.89;54.39;101924.03;5031038;28;20037;-70
2022/07/23 01:53:15;;;;;;;5.30;3.20;;;;;;;20.82;54.71;101925.38;5015577;28;20469;-70
2022/07/23 01:55:41;;;;;;;6.78;3.08;;;;;;;20.75;55.00;101922.06;5010990;28;20034;-71
2022/07/23 01:58:06;;;;;;;6.15;3.08;;;;;;;20.76;54.81;101920.97;4993839;28;20029;-71
2022/07/23 02:00:32;;;;;;;4.43;3.38;;;;;;;20.69;55.90;101918.50;4992029;28;20041;-71
2022/07/23 02:03:00;;;;;;;9.05;3.85;;;;;;;20.70;55.70;101916.56;4992995;28;20064;-71
2022/07/23 02:05:28;;;;;;;6.85;4.45;;;;;;;20.82;55.78;101919.91;4998748;28;20046;-71
2022/07/23 02:07:54;;;;;;;10.13;4.00;;;;;;;20.75;55.20;101922.06;5030361;28;20075;-70
2022/07/23 02:10:20;;;;;;;6.82;3.60;;;;;;;20.81;55.30;101916.34;5013555;28;20041;-71
2022/07/23 02:12:45;;;;;;;3.53;3.22;;;;;;;20.84;55.12;101917.72;5030510;28;20047;-72
2022/07/23 02:15:10;;;;;;;6.95;4.00;;;;;;;20.82;55.13;101922.63;5030432;28;20267;-72
2022/07/23 02:17:36;;;;;;;4.38;3.97;;;;;;;20.62;55.60;101923.38;5030252;28;20037;-71
2022/07/23 02:20:02;;;;;;;9.40;4.00;;;;;;;20.74;55.38;101917.69;5030162;28;20041;-70
2022/07/23 02:22:28;;;;;;;4.30;3.40;;;;;;;20.79;55.40;101924.00;5030820;28;20056;-71
2022/07/23 02:24:53;;;;;;;4.20;3.55;;;;;;;20.84;55.09;101920.47;5047714;28;20492;-71
2022/07/23 02:27:18;;;;;;;3.95;3.42;;;;;;;20.83;55.21;101927.03;5050569;28;20033;-72
2022/07/23 02:29:44;;;;;;;4.38;3.53;;;;;;;20.86;55.34;101921.00;5050136;28;20087;-71
2022/07/23 02:32:09;;;;;;;6.25;3.47;;;;;;;21.02;54.86;101916.47;5049651;28;20036;-70
2022/07/23 02:34:34;;;;;;;6.75;3.85;;;;;;;20.99;55.62;101921.34;5049768;28;20112;-71
2022/07/23 02:37:00;;;;;;;8.82;3.70;;;;;;;20.96;55.10;101902.75;5050441;28;20487;-71
2022/07/23 02:39:26;;;;;;;6.07;3.88;;;;;;;20.88;55.55;101916.09;5049450;28;20531;-71
2022/07/23 02:41:51;;;;;;;8.02;3.53;;;;;;;20.89;55.64;101923.22;5049976;28;20572;-72
2022/07/23 02:44:16;;;;;;;9.10;4.40;;;;;;;20.94;55.44;101907.66;5050341;28;20488;-70
2022/07/23 02:46:42;;;;;;;5.10;3.97;;;;;;;20.96;55.39;101901.94;5049527;28;20036;-71
2022/07/23 02:49:07;;;;;;;6.22;4.65;;;;;;;21.04;55.15;101906.06;5038090;28;20044;-72
2022/07/23 02:51:33;;;;;;;4.18;3.47;;;;;;;21.01;54.81;101910.19;5011882;28;20060;-71
2022/07/23 02:53:58;;;;;;;4.03;3.50;;;;;;;20.87;55.46;101919.94;5029466;28;20056;-72
2022/07/23 02:56:23;;;;;;;7.60;4.88;;;;;;;20.87;55.40;101926.19;5029352;28;20038;-70
2022/07/23 02:58:49;;;;;;;6.43;4.60;;;;;;;20.86;55.58;101923.75;5012108;28;20037;-72
2022/07/23 03:01:14;;;;;;;6.15;4.22;;;;;;;20.89;55.26;101928.69;5030336;28;20099;-70
2022/07/23 03:03:39;;;;;;;5.10;4.18;;;;;;;20.90;55.79;101924.84;5011347;28;20474;-71
2022/07/23 03:06:05;;;;;;;10.82;4.63;;;;;;;21.01;55.26;101926.59;5037095;28;20045;-70
2022/07/23 03:08:31;;;;;;;4.97;4.47;;;;;;;20.92;55.28;101922.69;5049380;28;20519;-71
2022/07/23 03:10:56;;;;;;;7.93;4.45;;;;;;;20.97;55.24;101915.31;5049391;28;20037;-71
2022/07/23 03:13:22;;;;;;;7.60;4.45;;;;;;;20.94;55.07;101924.06;5049813;28;20037;-70
2022/07/23 03:15:47;;;;;;;4.50;4.10;;;;;;;20.72;55.45;101923.41;5050140;28;20037;-72
2022/07/23 03:18:12;;;;;;;10.68;4.65;;;;;;;20.68;55.59;101930.50;5049133;28;20382;-70
2022/07/23 03:20:38;;;;;;;7.35;4.88;;;;;;;20.37;56.85;101936.03;5031186;28;20114;-73
2022/07/23 03:23:03;;;;;;;6.20;4.40;;;;;;;20.48;56.83;101937.78;5049035;28;20029;-70
2022/07/23 03:25:29;;;;;;;9.43;5.07;;;;;;;20.46;56.93;101939.94;5049154;28;20045;-69
2022/07/23 03:27:54;;;;;;;9.52;4.95;;;;;;;20.36;57.44;101939.88;5049185;28;20045;-72
2022/07/23 03:30:20;;;;;;;7.10;5.18;;;;;;;20.50;56.53;101938.34;5048633;28;20044;-71
2022/07/23 03:32:45;;;;;;;5.82;4.88;;;;;;;20.61;56.14;101937.28;5048240;28;20049;-72
2022/07/23 03:35:10;;;;;;;6.15;5.00;;;;;;;20.63;56.09;101935.13;5047778;28;20103;-70
2022/07/23 03:37:36;;;;;;;6.38;4.40;;;;;;;20.53;55.90;101938.63;5047896;28;20025;-70
2022/07/23 03:40:03;;;;;;;5.80;4.68;;;;;;;20.58;55.86;101940.56;5030272;28;20049;-71
2022/07/23 03:42:28;;;;;;;5.03;4.53;;;;;;;20.50;55.84;101936.41;5048165;28;20048;-72
2022/07/23 03:44:53;;;;;;;7.00;4.32;;;;;;;20.48;56.24;101937.78;5039525;28;20030;-71
2022/07/23 03:47:21;;;;;;;7.03;4.97;;;;;;;20.46;56.60;101946.22;5028672;28;20040;-70
2022/07/23 03:49:47;;;;;;;7.60;5.15;;;;;;;20.53;56.05;101949.53;5028433;28;20065;-71
2022/07/23 03:52:13;;;;;;;7.50;5.45;;;;;;;20.69;55.66;101942.25;5028943;28;20040;-71
2022/07/23 03:54:38;;;;;;;7.50;5.75;;;;;;;20.63;55.52;101949.59;5028069;28;20037;-72
2022/07/23 03:57:04;;;;;;;6.55;5.60;;;;;;;20.41;56.34;101953.56;5029029;28;20124;-72
2022/07/23 03:59:29;;;;;;;6.75;5.50;;;;;;;20.40;56.36;101955.44;5011028;28;20563;-72
2022/07/23 04:01:55;;;;;;;6.10;4.63;;;;;;;20.23;57.16;101946.59;5026913;28;20041;-70
2022/07/23 04:04:20;;;;;;;5.97;4.75;;;;;;;20.20;57.08;101949.88;5030534;28;20474;-72
2022/07/23 04:06:45;;;;;;;10.40;5.18;;;;;;;20.22;57.18;101946.88;5030811;28;20041;-70
2022/07/23 04:09:11;;;;;;;8.05;5.55;;;;;;;20.39;56.61;101948.34;5033288;28;20060;-70
2022/07/23 04:11:37;;;;;;;9.32;6.43;;;;;;;19.95;57.93;101944.19;5015336;28;20041;-70
2022/07/23 04:14:02;;;;;;;7.57;5.70;;;;;;;20.22;57.25;101947.69;5033494;28;20029;-69
2022/07/23 04:16:28;;;;;;;10.57;6.30;;;;;;;20.07;58.08;101948.38;5032930;28;20037;-71
2022/07/23 04:18:54;;;;;;;7.28;6.00;;;;;;;20.36;56.85;101939.88;5032702;28;20088;-71
2022/07/23 04:21:19;;;;;;;9.20;5.97;;;;;;;20.47;56.93;101938.84;5032711;28;20076;-70
2022/07/23 04:23:44;;;;;;;9.48;6.10;;;;;;;20.54;56.95;101945.72;5032347;28;20041;-70
2022/07/23 04:26:10;;;;;;;9.07;5.60;;;;;;;20.40;57.37;101946.47;5032053;28;20515;-69
2022/07/23 04:28:35;;;;;;;10.20;5.95;;;;;;;20.60;57.24;101946.59;5032373;28;20370;-71
2022/07/23 04:31:01;;;;;;;14.65;6.68;;;;;;;20.78;56.42;101944.22;5032802;28;20033;-71
2022/07/23 04:33:26;;;;;;;7.57;6.47;;;;;;;20.84;56.10;101943.16;5032350;28;20072;-71
2022/07/23 04:35:51;;;;;;;6.35;5.50;;;;;;;20.81;56.60;101937.41;5031890;28;20046;-72
2022/07/23 04:38:17;;;;;;;11.07;5.95;;;;;;;21.02;56.27;101939.16;5032267;28;20040;-70
2022/07/23 04:40:42;;;;;;;11.40;6.78;;;;;;;21.13;55.83;101931.81;5013488;28;20045;-70
2022/07/23 04:43:08;;;;;;;8.60;6.13;;;;;;;21.09;56.12;101941.66;5032656;28;20029;-71
2022/07/23 04:45:33;;;;;;;7.30;6.45;;;;;;;20.96;56.29;101940.19;5032147;28;20414;-70
2022/07/23 04:47:58;;;;;;;9.38;6.80;;;;;;;20.80;56.60;101935.75;5032110;28;20030;-70
2022/07/23 04:50:24;;;;;;;12.50;6.25;;;;;;;20.66;56.95;101940.88;5031677;28;20490;-70
2022/07/23 04:52:50;;;;;;;7.47;5.65;;;;;;;20.78;56.73;101937.91;5032285;28;20048;-72
2022/07/23 04:55:15;;;;;;;9.70;5.18;;;;;;;20.83;56.56;101937.97;5032342;28;20032;-70
2022/07/23 04:57:41;;;;;;;8.93;5.88;;;;;;;20.88;56.15;101936.06;5031655;28;20029;-71
2022/07/23 05:00:07;;;;;;;6.85;5.70;;;;;;;20.70;57.37;101936.53;5032278;28;20033;-71
2022/07/23 05:02:33;;;;;;;10.13;7.18;;;;;;;20.80;57.35;101938.47;5031665;28;20037;-72
2022/07/23 05:04:58;;;;;;;14.15;7.65;;;;;;;20.92;56.25;101933.63;5018713;28;20095;-71
2022/07/23 05:07:24;;;;;;;7.97;6.38;;;;;;;20.95;56.88;101942.09;5010407;28;20034;-70
2022/07/23 05:09:49;;;;;;;11.63;7.35;;;;;;;21.02;56.62;101944.63;5011638;28;20041;-70
2022/07/23 05:12:14;;;;;;;9.52;7.43;;;;;;;21.06;56.47;101956.66;5011920;28;20089;-70
2022/07/23 05:14:40;;;;;;;10.88;6.68;;;;;;;21.17;56.37;101952.88;5011566;28;20042;-71
2022/07/23 05:17:07;;;;;;;10.35;7.53;;;;;;;21.11;56.74;101947.66;5011399;28;20152;-70
2022/07/23 05:19:33;;;;;;;11.38;7.47;;;;;;;21.22;55.92;101952.06;5019392;28;20041;-70
2022/07/23 05:21:58;;;;;;;9.48;8.13;;;;;;;21.30;56.40;101962.50;5031744;28;20032;-71
2022/07/23 05:24:24;;;;;;;13.88;8.27;;;;;;;20.96;57.28;101967.53;5031420;28;20095;-71
2022/07/23 05:26:49;;;;;;;12.80;8.00;;;;;;;21.10;57.53;101965.16;5031490;28;20650;-73
2022/07/23 05:29:15;;;;;;;8.98;7.50;;;;;;;21.29;57.06;101963.56;5031156;28;20033;-71
2022/07/23 05:31:40;;;;;;;9.85;8.07;;;;;;;21.35;56.19;101977.00;5031308;28;20378;-70
2022/07/23 05:34:06;;;;;;;10.75;7.20;;;;;;;21.28;56.85;101979.16;5031794;28;20083;-72
2022/07/23 05:36:32;;;;;;;12.85;7.85;;;;;;;21.47;55.96;101984.94;5030798;28;20508;-71
2022/07/23 05:38:57;;;;;;;13.98;7.63;;;;;;;21.35;56.98;101982.47;5030918;28;20141;-71
2022/07/23 05:41:23;;;;;;;13.73;7.80;;;;;;;21.37;56.65;101973.97;5028640;28;20473;-71
2022/07/23 05:43:48;;;;;;;10.50;7.93;;;;;;;21.58;56.48;101970.22;5030861;28;20044;-71
2022/07/23 05:46:14;;;;;;;9.93;7.85;;;;;;;21.71;55.78;101970.53;5025413;28;20037;-71
2022/07/23 05:48:39;;;;;;;11.05;7.43;;;;;;;21.73;55.84;101976.53;5030682;28;20080;-72
2022/07/23 05:51:06;;;;;;;11.40;7.47;;;;;;;21.74;55.85;101974.59;5030241;28;20037;-71
2022/07/23 05:53:32;;;;;;;11.38;7.25;;;;;;;21.80;55.23;101988.06;5030327;28;20067;-71
2022/07/23 05:55:58;;;;;;;8.85;6.53;;;;;;;21.90;54.86;101992.72;5030274;28;20045;-70
2022/07/23 05:58:23;;;;;;;9.70;7.28;;;;;;;21.99;54.53;102001.22;5030820;28;20507;-71
2022/07/23 06:00:49;;;;;;;8.20;6.57;;;;;;;21.94;54.53;101991.09;5030754;28;20049;-71
2022/07/23 06:03:14;;;;;;;9.70;6.38;;;;;;;22.01;54.56;101988.91;5030138;28;20033;-72
2022/07/23 06:05:40;;;;;;;10.05;6.38;;;;;;;21.99;54.22;101993.00;5029701;28;20030;-70
2022/07/23 06:08:05;;;;;;;8.50;6.82;;;;;;;22.13;53.84;101986.69;5029877;28;20077;-71
2022/07/23 06:10:31;;;;;;;8.45;6.57;;;;;;;22.27;53.95;101984.25;5029585;28;20080;-73
2022/07/23 06:12:56;;;;;;;7.38;5.57;;;;;;;22.30;53.67;101989.16;5030265;28;20032;-72
2022/07/23 06:15:22;;;;;;;6.78;5.82;;;;;;;22.12;53.38;101985.06;5029633;28;20029;-70
2022/07/23 06:17:47;;;;;;;8.80;4.55;;;;;;;22.12;53.97;101993.28;5029722;28;20041;-73
2022/07/23 06:20:12;;;;;;;5.40;4.82;;;;;;;22.19;53.38;101988.34;5028905;28;20029;-70
2022/07/23 06:22:38;;;;;;;5.25;4.65;;;;;;;22.54;52.34;101991.03;5028998;28;20041;-72
2022/07/23 06:25:04;;;;;;;7.18;4.20;;;;;;;22.59;52.27;101987.50;5029687;28;20041;-70
2022/07/23 06:27:30;;;;;;;6.03;3.83;;;;;;;22.13;52.60;101986.69;5029354;28;20084;-73
2022/07/23 06:29:55;;;;;;;14.27;3.47;;;;;;;22.24;51.80;101995.75;5026933;28;20037;-72
2022/07/23 06:32:21;;;;;;;7.80;3.47;;;;;;;22.60;50.72;101986.44;5027135;28;20128;-71
2022/07/23 06:34:46;;;;;;;3.17;2.60;;;;;;;22.80;50.12;102000.06;5028893;28;20021;-71
2022/07/23 06:37:12;;;;;;;7.45;2.70;;;;;;;22.35;50.42;102000.09;5029522;28;20036;-71
2022/07/23 06:39:37;;;;;;;3.97;2.50;;;;;;;22.86;49.88;102003.63;5029439;28;20136;-72
2022/07/23 06:42:02;;;;;;;12.32;2.78;;;;;;;22.71;49.00;102004.47;5029322;28;20052;-71
2022/07/23 06:44:28;;;;;;;8.85;2.40;;;;;;;22.91;48.75;102001.69;5029706;28;20041;-72
2022/07/23 06:46:54;;;;;;;11.13;3.20;;;;;;;22.92;48.83;102003.31;5026356;28;20464;-71
2022/07/23 06:49:19;;;;;;;6.50;2.58;;;;;;;22.58;48.93;101997.63;5028119;28;20021;-72
2022/07/23 06:51:45;;;;;;;5.38;2.50;;;;;;;22.86;48.93;102011.84;5028605;28;20048;-71
2022/07/23 06:54:10;;;;;;;6.65;3.60;;;;;;;22.81;49.27;102012.69;5010794;28;20033;-72
2022/07/23 06:56:36;;;;;;;5.68;3.55;;;;;;;23.07;49.49;102022.47;5028531;28;20033;-71
2022/07/23 06:59:01;;;;;;;5.03;3.13;;;;;;;23.12;48.18;102022.44;5028850;28;20029;-72
2022/07/23 07:01:26;;;;;;;6.93;3.05;;;;;;;23.32;47.60;102019.66;5029045;28;20045;-71
2022/07/23 07:03:52;;;;;;;4.25;2.97;;;;;;;23.35;47.85;102024.56;5028680;28;20032;-72
2022/07/23 07:06:17;;;;;;;4.80;2.90;;;;;;;22.91;48.52;102022.78;5029012;28;20389;-71
2022/07/23 07:08:43;;;;;;;6.68;3.42;;;;;;;23.06;47.86;102022.75;5028061;28;20036;-72
2022/07/23 07:11:09;;;;;;;4.65;3.20;;;;;;;23.21;47.59;102023.50;5028672;28;20057;-70
2022/07/23 07:13:35;;;;;;;4.60;2.70;;;;;;;23.43;46.52;102034.97;5028655;28;20108;-72
2022/07/23 07:16:00;;;;;;;6.07;2.72;;;;;;;23.68;46.89;102030.44;5028629;28;20533;-72
2022/07/23 07:18:25;;;;;;;4.05;2.00;;;;;;;23.03;47.87;102026.88;5028156;28;20073;-71
2022/07/23 07:20:51;;;;;;;3.88;1.90;;;;;;;23.05;49.02;102021.94;5028534;28;20037;-70
2022/07/23 07:23:17;;;;;;;8.85;2.08;;;;;;;23.53;47.52;102012.97;5028256;28;20041;-72
2022/07/23 07:25:42;;;;;;;2.97;1.58;;;;;;;23.80;46.40;102023.53;5028187;28;20335;-72
2022/07/23 07:28:07;;;;;;;5.28;2.10;;;;;;;23.46;46.56;102020.69;5029225;28;20025;-70
2022/07/23 07:30:33;;;;;;;4.93;2.17;;;;;;;23.89;45.46;102012.72;5028299;28;20052;-71
2022/07/23 07:32:58;;;;;;;6.00;2.17;;;;;;;23.98;45.89;102013.78;5028423;28;20033;-71
2022/07/23 07:35:24;;;;;;;4.25;2.55;;;;;;;24.21;44.91;102021.31;5028592;28;20516;-71
2022/07/23 07:37:50;;;;;;;4.38;1.92;;;;;;;24.55;44.56;102019.34;5030733;28;20531;-72
2022/07/23 07:40:15;;;;;;;4.07;2.03;;;;;;;24.38;44.30;102019.78;5029395;28;20056;-71
2022/07/23 07:42:48;;;;;;;3.83;1.60;;;;;;;24.14;44.22;102027.13;5033761;28;20041;-70
2022/07/23 07:45:15;;;;;;;8.98;2.35;;;;;;;24.49;43.91;102026.00;5034320;28;20036;-70
2022/07/23 07:47:40;;;;;;;3.88;2.10;;;;;;;24.70;43.34;102035.69;5015924;28;20084;-71
2022/07/23 07:50:07;;;;;;;14.63;2.42;;;;;;;24.84;43.28;102038.63;5034175;28;20037;-72
2022/07/23 07:52:33;;;;;;;3.08;1.77;;;;;;;24.88;42.46;102039.66;5034262;28;20033;-66
2022/07/23 07:54:58;;;;;;;4.55;1.83;;;;;;;24.21;44.05;102040.53;5024113;28;20033;-65
2022/07/23 07:57:24;;;;;;;4.53;1.75;;;;;;;24.46;44.54;102047.75;5025904;28;20251;-67
2022/07/23 07:59:49;;;;;;;7.93;3.10;;;;;;;25.04;42.58;102033.69;5030353;28;20092;-73
2022/07/23 08:02:15;;;;;;;7.63;2.22;;;;;;;25.66;41.33;102045.59;5031429;28;20026;-67
2022/07/23 08:04:45;;;;;;;9.38;2.50;;;;;;;25.94;40.97;102039.97;5012114;28;20041;-67
2022/07/23 08:07:10;;;;;;;6.30;2.20;;;;;;;24.78;43.37;102050.78;5028557;28;20025;-66
2022/07/23 08:09:36;;;;;;;2.40;1.48;;;;;;;24.79;42.85;102052.41;5029247;28;20184;-64
2022/07/23 08:12:03;;;;;;;5.57;1.50;;;;;;;25.52;41.77;102063.97;5030302;28;20135;-66
2022/07/23 08:14:29;;;;;;;7.47;1.80;;;;;;;25.16;42.47;102055.28;5029342;28;20041;-66
2022/07/23 08:16:54;;;;;;;4.45;1.80;;;;;;;24.51;43.41;102051.25;5030741;28;20481;-65
2022/07/23 08:19:20;;;;;;;5.18;1.73;;;;;;;24.64;44.37;102058.84;5032316;28;20036;-66
2022/07/23 08:21:45;;;;;;;3.15;1.13;;;;;;;24.71;43.21;102053.81;5039232;28;20025;-65
2022/07/23 08:24:10;;;;;;;2.42;1.65;;;;;;;25.13;42.05;102058.63;5051295;28;20095;-64
2022/07/23 08:26:36;;;;;;;3.50;1.70;;;;;;;25.23;42.70;102064.84;5031833;28;20037;-67
2022/07/23 08:29:01;;;;;;;6.50;1.05;;;;;;;24.42;42.85;102075.81;5051406;28;20040;-65
2022/07/23 08:31:27;;;;;;;4.32;1.20;;;;;;;24.30;43.72;102069.03;5037816;28;20076;-65
2022/07/23 08:33:52;;;;;;;10.07;2.10;;;;;;;24.39;43.30;102065.38;5030690;28;20504;-66
2022/07/23 08:36:18;;;;;;;7.93;1.50;;;;;;;25.13;42.42;102073.22;5030383;28;20048;-67
2022/07/23 08:38:43;;;;;;;2.35;1.23;;;;;;;26.15;40.03;102073.53;5030365;28;20045;-66
2022/07/23 08:41:09;;;;;;;4.82;1.08;;;;;;;25.78;40.21;102073.53;5031788;28;20052;-66
2022/07/23 08:43:35;;;;;;;5.28;1.02;;;;;;;26.32;39.24;102073.81;5032303;28;20536;-65
2022/07/23 08:46:02;;;;;;;2.92;1.17;;;;;;;25.77;40.99;102072.69;5014254;28;20036;-66
2022/07/23 08:48:30;;;;;;;3.38;1.10;;;;;;;26.48;39.22;102072.44;5031852;28;20559;-65
2022/07/23 08:50:59;;;;;;;2.35;0.70;;;;;;;26.33;39.04;102075.47;5032327;28;20046;-67
2022/07/23 08:53:27;;;;;;;2.17;1.02;;;;;;;26.42;39.38;102073.66;5029564;28;20044;-66
2022/07/23 08:55:56;;;;;;;1.95;0.90;;;;;;;26.97;37.94;102074.63;5032222;28;20102;-67
2022/07/23 08:58:22;;;;;;;4.13;1.17;;;;;;;26.53;37.82;102066.84;5036415;28;20033;-67
2022/07/23 09:00:47;;;;;;;2.58;1.00;;;;;;;25.84;39.55;102080.59;5028881;28;20043;-67
2022/07/23 09:03:34;;;;;;;5.78;0.98;;;;;;;26.44;39.22;102070.59;5028556;28;20041;-66
2022/07/23 09:06:01;;;;;;;3.45;1.27;;;;;;;25.87;40.01;102078.06;5010325;28;20041;-66
2022/07/23 09:08:36;;;;;;;2.70;1.05;;;;;;;26.79;38.32;102072.78;5027946;28;20037;-66
2022/07/23 09:11:04;;;;;;;4.30;1.42;;;;;;;26.42;39.06;102070.06;5029126;28;20061;-72
2022/07/23 09:13:43;;;;;;;2.55;1.10;;;;;;;27.11;38.18;102075.44;5029019;28;20029;-75
2022/07/23 09:16:19;;;;;;;4.68;1.20;;;;;;;26.66;38.68;102068.81;5028831;28;20045;-72
2022/07/23 09:18:54;;;;;;;3.90;1.00;;;;;;;27.56;37.66;102062.66;5028552;28;20091;-75
2022/07/23 09:21:30;;;;;;;3.95;1.20;;;;;;;26.97;38.73;102066.34;5029387;28;20046;-72
2022/07/23 09:24:06;;;;;;;4.22;1.30;;;;;;;27.08;38.02;102069.72;5035212;28;20052;-75
2022/07/23 09:26:40;;;;;;;6.38;1.25;;;;;;;27.22;37.90;102065.03;5037254;28;20043;-73
2022/07/23 09:29:19;;;;;;;3.55;1.88;;;;;;;27.11;37.59;102071.88;5030279;28;20033;-73
2022/07/23 09:31:45;;;;;;;3.35;1.15;;;;;;;26.88;37.96;102080.03;5031594;28;20043;-73
2022/07/23 09:34:18;;;;;;;1.83;1.02;;;;;;;27.03;37.88;102073.41;5028474;28;20116;-74
2022/07/23 09:36:44;;;;;;;3.65;1.10;;;;;;;26.92;38.42;102066.44;5027444;28;20136;-74
2022/07/23 09:39:10;;;;;;;3.33;1.25;;;;;;;27.00;38.11;102062.97;5027976;28;20228;-73
2022/07/23 09:41:38;;;;;;;7.25;1.25;;;;;;;26.69;38.17;102070.97;5009885;28;20460;-75
2022/07/23 09:44:11;;;;;;;5.80;1.73;;;;;;;26.79;38.32;102070.00;5027976;28;20126;-73
2022/07/23 09:46:39;;;;;;;3.85;1.08;;;;;;;27.37;37.06;102060.03;5027811;28;20030;-73
2022/07/23 09:49:12;;;;;;;3.72;1.23;;;;;;;27.70;36.23;102067.06;5028461;28;20068;-74
2022/07/23 09:51:46;;;;;;;5.35;1.27;;;;;;;27.34;37.63;102068.94;5028330;28;20136;-74
2022/07/23 09:54:35;;;;;;;16.38;2.15;;;;;;;28.68;35.79;102070.00;5027502;28;20132;-73
2022/07/23 09:57:06;;;;;;;1.50;1.15;;;;;;;28.19;35.22;102063.44;5041515;28;20044;-73
2022/07/23 09:59:35;;;;;;;3.33;1.15;;;;;;;27.95;35.12;102071.19;5047542;28;20091;-74
2022/07/23 10:02:01;;;;;;;1.27;0.80;;;;;;;27.75;36.97;102066.91;5032503;28;20663;-74
2022/07/23 10:04:29;;;;;;;7.78;1.60;;;;;;;27.51;36.68;102068.31;5027253;28;20033;-71
2022/07/23 10:06:56;;;;;;;6.35;1.73;;;;;;;26.90;37.44;102075.03;5027779;28;20141;-72
2022/07/23 10:09:31;;;;;;;3.15;1.27;;;;;;;27.68;36.90;102069.31;5026960;28;20064;-73
2022/07/23 10:14:49;;;;;;;4.32;1.50;;;;;;;27.79;36.02;102067.16;4963849;28;20137;-74
2022/07/23 10:17:15;;;;;;;1.60;1.23;;;;;;;28.19;35.19;102068.16;4947440;28;20051;-72
2022/07/23 10:19:41;;;;;;;2.47;1.23;;;;;;;28.77;34.90;102079.16;4946976;28;20038;-72
2022/07/23 10:22:22;;;;;;;5.13;1.08;;;;;;;27.81;35.82;102073.97;4976170;28;20049;-73
2022/07/23 10:25:32;;;;;;;6.25;1.55;;;;;;;26.97;37.25;102069.09;4974104;28;20066;-72
2022/07/23 10:28:15;;;;;;;5.10;1.23;;;;;;;28.83;34.77;102070.41;4970238;28;20050;-72
2022/07/23 10:31:05;;;;;;;12.60;2.90;;;;;;;28.81;34.63;102074.63;4968328;28;20042;-72
2022/07/23 10:34:02;;;;;;;3.40;2.10;;;;;;;27.33;37.84;102072.81;4953585;28;20043;-71
2022/07/23 10:36:56;;;;;;;2.63;1.55;;;;;;;27.62;37.54;102069.72;4953586;28;20046;-73
2022/07/23 10:39:28;;;;;;;5.28;2.05;;;;;;;28.56;35.51;102073.31;4973466;28;20503;-72
2022/07/23 10:42:10;;;;;;;3.95;1.55;;;;;;;29.33;34.51;102073.72;4965817;28;20063;-75
2022/07/23 10:44:42;;;;;;;5.40;2.10;;;;;;;28.79;34.29;102074.94;4969356;28;20046;-72
2022/07/23 10:49:41;;;;;;;2.60;1.40;;;;;;;27.46;36.12;102069.22;4974994;28;20736;-66
2022/07/23 10:52:17;;;;;;;2.90;1.25;;;;;;;27.35;36.71;102070.59;4992081;28;20050;-74
2022/07/23 10:54:45;;;;;;;2.25;1.27;;;;;;;29.10;35.07;102072.97;5006175;28;20072;-78
2022/07/23 10:57:12;;;;;;;6.22;2.03;;;;;;;28.92;34.55;102075.97;5001715;28;20049;-74
2022/07/23 11:02:29;;;;;;;4.10;2.10;;;;;;;29.64;33.36;102070.88;4997490;28;20086;-73
2022/07/23 11:05:19;;;;;;;2.92;2.05;;;;;;;30.16;32.96;102064.22;5000093;28;20112;-74
2022/07/23 11:08:03;;;;;;;3.75;2.28;;;;;;;29.55;34.06;102068.06;4998955;28;20814;-72
2022/07/23 11:10:32;;;;;;;82.28;4.82;;;;;;;29.67;32.76;102068.25;5005325;28;20050;-72
2022/07/23 11:13:27;;;;;;;19.48;1.85;;;;;;;29.67;33.47;102062.72;5006730;28;20050;-70
2022/07/23 11:16:04;;;;;;;18.60;2.33;;;;;;;29.00;34.07;102069.66;5005805;28;20042;-76
2022/07/23 11:18:39;;;;;;;4.30;2.05;;;;;;;27.99;36.84;102055.63;5006407;28;20030;-71
2022/07/23 11:21:29;;;;;;;4.35;2.20;;;;;;;28.87;34.99;102059.50;5005776;28;20433;-74
2022/07/23 11:23:57;;;;;;;28.00;2.55;;;;;;;29.81;33.53;102060.66;5015403;28;20547;-71
2022/07/23 11:26:37;;;;;;;13.10;2.28;;;;;;;30.38;32.68;102064.09;5033053;28;20041;-72
2022/07/23 11:29:21;;;;;;;;;;;;;;;30.42;32.46;102047.59;5046310;28;20123;-72
2022/07/23 11:32:07;;;;;;;3.53;1.90;;;;;;;30.52;32.63;102053.63;5046445;28;19990;-73
2022/07/23 11:34:38;;;;;;;6.05;2.38;;;;;;;29.31;33.41;102065.72;5045612;28;20025;-72